createdAt,value
2023-05-19T00:01:54.403Z,6.62
2023-05-19T00:04:54.391Z,6.63
2023-05-19T00:07:54.391Z,6.64
2023-05-19T00:10:54.407Z,6.66
2023-05-19T00:13:54.399Z,6.68
2023-05-19T00:16:54.402Z,6.68
2023-05-19T00:19:54.402Z,6.7
2023-05-19T00:22:54.410Z,6.73
2023-05-19T00:25:54.405Z,6.72
2023-05-19T00:28:54.412Z,6.74
2023-05-19T00:31:54.434Z,6.71
2023-05-19T00:34:54.434Z,6.71
2023-05-19T00:37:54.439Z,6.74
2023-05-19T00:40:54.446Z,6.71
2023-05-19T00:43:54.451Z,6.73
2023-05-19T00:46:54.480Z,6.74
2023-05-19T00:49:54.466Z,6.75
2023-05-19T00:52:54.460Z,6.76
2023-05-19T00:55:54.467Z,6.78
2023-05-19T00:58:54.458Z,6.79
2023-05-19T01:01:54.478Z,6.75
2023-05-19T01:04:54.479Z,6.77
2023-05-19T01:07:54.495Z,6.78
2023-05-19T01:10:54.496Z,6.78
2023-05-19T01:13:54.493Z,6.77
2023-05-19T01:16:54.550Z,6.77
2023-05-19T01:19:54.508Z,6.74
2023-05-19T01:22:54.515Z,6.79
2023-05-19T01:25:54.518Z,6.76
2023-05-19T01:28:54.524Z,6.77
2023-05-19T01:31:54.574Z,6.78
2023-05-19T01:34:54.555Z,6.8
2023-05-19T01:37:54.538Z,6.81
2023-05-19T01:40:54.548Z,6.81
2023-05-19T01:43:54.548Z,6.81
2023-05-19T01:46:54.556Z,6.83
2023-05-19T01:49:54.553Z,6.83
2023-05-19T01:52:54.562Z,6.84
2023-05-19T01:55:54.578Z,6.85
2023-05-19T01:58:54.582Z,6.85
2023-05-19T02:01:54.579Z,6.85
2023-05-19T02:04:54.663Z,6.81
2023-05-19T02:07:54.591Z,6.81
2023-05-19T02:10:54.595Z,6.82
2023-05-19T02:13:54.599Z,6.78
2023-05-19T02:16:54.597Z,6.79
2023-05-19T02:19:54.607Z,6.8
2023-05-19T02:22:54.606Z,6.8
2023-05-19T02:25:54.612Z,6.77
2023-05-19T02:28:54.618Z,6.78
2023-05-19T02:31:54.675Z,6.78
2023-05-19T02:34:54.626Z,6.78
2023-05-19T02:37:54.633Z,6.79
2023-05-19T02:40:54.632Z,6.8
2023-05-19T02:43:54.640Z,6.75
2023-05-19T02:46:54.678Z,6.81
2023-05-19T02:49:54.646Z,6.77
2023-05-19T02:52:54.647Z,6.76
2023-05-19T02:55:54.656Z,6.77
2023-05-19T02:58:54.652Z,6.74
2023-05-19T03:01:54.656Z,6.75
2023-05-19T03:04:54.669Z,6.8
2023-05-19T03:07:54.661Z,6.76
2023-05-19T03:10:54.670Z,6.77
2023-05-19T03:13:54.683Z,6.77
2023-05-19T03:16:54.747Z,6.78
2023-05-19T03:19:54.679Z,6.78
2023-05-19T03:22:54.690Z,6.79
2023-05-19T03:25:54.692Z,6.79
2023-05-19T03:28:54.703Z,6.8
2023-05-19T03:31:54.703Z,6.76
2023-05-19T03:34:54.704Z,6.76
2023-05-19T03:37:54.718Z,6.77
2023-05-19T03:40:54.727Z,6.78
2023-05-19T03:43:54.731Z,6.78
2023-05-19T03:46:54.747Z,6.78
2023-05-19T03:49:54.740Z,6.81
2023-05-19T03:52:54.750Z,6.81
2023-05-19T03:55:54.752Z,6.81
2023-05-19T03:58:54.774Z,6.81
2023-05-19T04:01:54.798Z,6.85
2023-05-19T04:04:54.842Z,6.8
2023-05-19T04:07:54.780Z,6.84
2023-05-19T04:10:54.774Z,6.84
2023-05-19T04:13:54.787Z,6.84
2023-05-19T04:16:54.780Z,6.81
2023-05-19T04:19:54.783Z,6.81
2023-05-19T04:22:54.786Z,6.81
2023-05-19T04:25:54.793Z,6.81
2023-05-19T04:28:54.790Z,6.81
2023-05-19T04:31:54.807Z,6.77
2023-05-19T04:34:54.810Z,6.77
2023-05-19T04:37:54.841Z,6.78
2023-05-19T04:40:54.820Z,6.78
2023-05-19T04:43:54.820Z,6.82
2023-05-19T04:46:54.877Z,6.77
2023-05-19T04:49:54.827Z,6.81
2023-05-19T04:52:54.826Z,6.81
2023-05-19T04:55:54.835Z,6.85
2023-05-19T04:58:54.853Z,6.84
2023-05-19T05:01:54.862Z,6.88
2023-05-19T05:04:54.844Z,6.92
2023-05-19T05:07:54.850Z,6.94
2023-05-19T05:10:54.851Z,6.99
2023-05-19T05:13:54.866Z,7.02
2023-05-19T05:16:54.887Z,7.02
2023-05-19T05:19:54.883Z,7.07
2023-05-19T05:22:54.878Z,7.08
2023-05-19T05:25:54.879Z,7.18
2023-05-19T05:28:54.897Z,7.19
2023-05-19T05:31:54.896Z,7.3
2023-05-19T05:34:54.893Z,7.34
2023-05-19T05:37:54.896Z,7.4
2023-05-19T05:40:54.899Z,7.59
2023-05-19T05:43:54.912Z,7.56
2023-05-19T05:46:54.907Z,7.66
2023-05-19T05:49:54.919Z,7.7
2023-05-19T05:52:54.921Z,7.85
2023-05-19T05:58:54.924Z,7.64
2023-05-19T06:01:54.952Z,7.71
2023-05-19T06:04:54.941Z,7.67
2023-05-19T06:07:54.944Z,7.64
2023-05-19T06:10:54.946Z,7.52
2023-05-19T06:13:54.951Z,7.56
2023-05-19T06:16:54.954Z,7.54
2023-05-19T06:19:54.962Z,7.6
2023-05-19T06:22:54.981Z,7.67
2023-05-19T06:25:54.968Z,7.66
2023-05-19T06:28:54.978Z,7.73
2023-05-19T06:31:55.069Z,7.79
2023-05-19T06:34:54.985Z,7.55
2023-05-19T06:37:54.983Z,7.58
2023-05-19T06:40:54.987Z,7.64
2023-05-19T06:43:54.988Z,7.78
2023-05-19T06:46:55.059Z,7.7
2023-05-19T06:49:55.048Z,7.61
2023-05-19T06:52:55.010Z,7.65
2023-05-19T06:55:59.644Z,7.72
2023-05-19T06:58:55.013Z,7.63
2023-05-19T07:01:55.096Z,7.68
2023-05-19T07:04:55.021Z,7.74
2023-05-19T07:07:55.017Z,7.72
2023-05-19T07:10:55.023Z,7.76
2023-05-19T07:13:55.040Z,7.81
2023-05-19T07:16:55.064Z,7.78
2023-05-19T07:19:55.063Z,7.85
2023-05-19T07:22:55.049Z,7.88
2023-05-19T07:25:55.057Z,7.92
2023-05-19T07:28:55.060Z,7.95
2023-05-19T07:31:55.099Z,7.89
2023-05-19T07:34:55.066Z,7.84
2023-05-19T07:37:55.081Z,8.07
2023-05-19T07:40:55.068Z,8.09
2023-05-19T07:43:55.080Z,7.92
2023-05-19T07:46:55.076Z,8
2023-05-19T07:49:55.082Z,8.04
2023-05-19T07:52:55.090Z,8.01
2023-05-19T07:55:55.899Z,8.03
2023-05-19T07:58:55.102Z,7.97
2023-05-19T08:01:55.110Z,8.05
2023-05-19T08:04:55.161Z,8.03
2023-05-19T08:07:55.114Z,8.08
2023-05-19T08:10:55.119Z,7.99
2023-05-19T08:13:55.119Z,8.08
2023-05-19T08:16:55.145Z,7.99
2023-05-19T08:19:55.141Z,8.09
2023-05-19T08:22:55.141Z,8.18
2023-05-19T08:25:55.147Z,8.07
2023-05-19T08:28:55.157Z,8.08
2023-05-19T08:31:55.173Z,7.88
2023-05-19T08:34:55.172Z,8.11
2023-05-19T08:37:55.180Z,8.05
2023-05-19T08:40:55.179Z,7.77
2023-05-19T08:43:55.179Z,7.69
2023-05-19T08:46:55.206Z,7.87
2023-05-19T08:49:55.191Z,7.89
2023-05-19T08:52:55.196Z,7.74
2023-05-19T08:55:55.188Z,7.86
2023-05-19T08:58:55.197Z,7.87
2023-05-19T09:01:55.226Z,7.69
2023-05-19T09:04:55.286Z,7.66
2023-05-19T09:07:55.215Z,7.74
2023-05-19T09:10:55.232Z,7.81
2023-05-19T09:13:55.229Z,7.72
2023-05-19T09:16:55.245Z,7.71
2023-05-19T09:19:55.240Z,7.69
2023-05-19T09:22:55.335Z,7.53
2023-05-19T09:25:55.255Z,7.55
2023-05-19T09:28:55.245Z,7.43
2023-05-19T09:31:55.253Z,7.35
2023-05-19T09:34:55.250Z,7.46
2023-05-19T09:37:55.258Z,7.56
2023-05-19T09:40:55.250Z,7.38
2023-05-19T09:43:55.251Z,7.39
2023-05-19T09:46:55.273Z,7.19
2023-05-19T09:49:55.272Z,7.22
2023-05-19T09:52:55.278Z,7.3
2023-05-19T09:55:55.274Z,7.14
2023-05-19T09:58:55.285Z,7.3
2023-05-19T10:01:55.337Z,7.46
2023-05-19T10:04:55.354Z,7.4
2023-05-19T10:07:55.290Z,7.34
2023-05-19T10:10:55.287Z,7.36
2023-05-19T10:13:55.299Z,7.34
2023-05-19T10:16:55.449Z,7.17
2023-05-19T10:19:55.329Z,7.53
2023-05-19T10:22:55.314Z,7.19
2023-05-19T10:25:55.332Z,7.24
2023-05-19T10:28:55.510Z,7.17
2023-05-19T10:31:55.366Z,6.99
2023-05-19T10:34:55.334Z,7.44
2023-05-19T10:37:55.343Z,7.03
2023-05-19T10:40:55.326Z,6.75
2023-05-19T10:43:55.326Z,6.91
2023-05-19T10:46:56.643Z,6.95
2023-05-19T10:49:55.357Z,7.03
2023-05-19T10:52:55.360Z,6.89
2023-05-19T10:55:55.372Z,6.93
2023-05-19T10:58:55.375Z,7.09
2023-05-19T11:01:55.390Z,7.05
2023-05-19T11:04:55.381Z,6.95
2023-05-19T11:07:55.392Z,7.03
2023-05-19T11:10:55.386Z,6.91
2023-05-19T11:13:55.507Z,6.85
2023-05-19T11:16:55.443Z,6.81
2023-05-19T11:19:55.405Z,7.05
2023-05-19T11:22:55.415Z,6.73
2023-05-19T11:25:55.406Z,6.62
2023-05-19T11:28:55.410Z,6.63
2023-05-19T11:31:55.426Z,6.57
2023-05-19T11:34:55.427Z,6.59
2023-05-19T11:37:55.409Z,6.63
2023-05-19T11:40:55.426Z,6.67
2023-05-19T11:43:55.427Z,7
2023-05-19T11:46:55.528Z,6.83
2023-05-19T11:49:55.435Z,6.73
2023-05-19T11:52:55.473Z,6.72
2023-05-19T11:55:55.448Z,6.78
2023-05-19T11:58:55.456Z,6.9
2023-05-19T12:01:55.441Z,6.72
2023-05-19T12:04:55.507Z,6.78
2023-05-19T12:07:55.461Z,6.7
2023-05-19T12:10:55.457Z,6.67
2023-05-19T12:13:55.473Z,6.63
2023-05-19T12:16:55.478Z,6.79
2023-05-19T12:19:55.475Z,6.73
2023-05-19T12:22:55.475Z,6.72
2023-05-19T12:25:55.474Z,6.71
2023-05-19T12:28:55.475Z,6.78
2023-05-19T12:31:55.507Z,6.75
2023-05-19T12:34:55.493Z,6.89
2023-05-19T12:37:55.497Z,6.95
2023-05-19T12:40:55.512Z,6.92
2023-05-19T12:43:55.514Z,6.85
2023-05-19T12:46:55.520Z,6.82
2023-05-19T12:49:55.507Z,6.77
2023-05-19T12:52:55.524Z,6.63
2023-05-19T12:55:55.523Z,6.66
2023-05-19T12:58:55.548Z,6.67
2023-05-19T13:01:55.575Z,6.85
2023-05-19T13:04:55.539Z,6.9
2023-05-19T13:07:55.552Z,6.92
2023-05-19T13:10:55.532Z,6.91
2023-05-19T13:13:55.542Z,6.83
2023-05-19T13:16:55.623Z,6.8
2023-05-19T13:19:55.649Z,6.93
2023-05-19T13:22:55.556Z,6.84
2023-05-19T13:25:55.554Z,6.82
2023-05-19T13:28:55.564Z,6.8
2023-05-19T13:31:55.552Z,6.9
2023-05-19T13:34:55.561Z,7.05
2023-05-19T13:37:55.589Z,6.88
2023-05-19T13:40:55.577Z,6.69
2023-05-19T13:43:55.563Z,6.59
2023-05-19T13:46:55.589Z,6.81
2023-05-19T13:49:55.587Z,6.66
2023-05-19T13:52:55.596Z,6.76
2023-05-19T13:55:55.608Z,6.89
2023-05-19T13:58:55.606Z,6.88
2023-05-19T14:01:55.695Z,6.81
2023-05-19T14:04:55.649Z,6.92
2023-05-19T14:07:55.668Z,6.93
2023-05-19T14:10:55.650Z,6.88
2023-05-19T14:13:55.658Z,6.86
2023-05-19T14:16:55.668Z,6.89
2023-05-19T14:19:55.672Z,6.8
2023-05-19T14:22:55.675Z,6.93
2023-05-19T14:25:55.682Z,6.99
2023-05-19T14:28:55.699Z,7.05
2023-05-19T14:31:55.698Z,6.92
2023-05-19T14:34:55.703Z,6.99
2023-05-19T14:37:55.700Z,6.96
2023-05-19T14:40:55.719Z,6.88
2023-05-19T14:43:55.711Z,6.89
2023-05-19T14:46:55.779Z,6.89
2023-05-19T14:49:55.723Z,6.92
2023-05-19T14:52:55.730Z,6.98
2023-05-19T14:55:55.733Z,6.97
2023-05-19T14:58:55.750Z,7.01
2023-05-19T15:01:55.744Z,6.81
2023-05-19T15:04:55.745Z,6.87
2023-05-19T15:07:55.746Z,6.83
2023-05-19T15:10:55.760Z,6.83
2023-05-19T15:13:55.762Z,6.93
2023-05-19T15:16:55.788Z,6.85
2023-05-19T15:19:55.783Z,6.62
2023-05-19T15:22:55.776Z,6.71
2023-05-19T15:25:55.778Z,6.73
2023-05-19T15:28:55.789Z,6.7
2023-05-19T15:31:55.793Z,6.82
2023-05-19T15:34:55.789Z,6.82
2023-05-19T15:37:55.806Z,6.85
2023-05-19T15:40:55.798Z,6.81
2023-05-19T15:43:55.800Z,6.86
2023-05-19T15:46:55.803Z,6.86
2023-05-19T15:49:55.818Z,6.88
2023-05-19T15:52:55.821Z,7.05
2023-05-19T15:55:55.828Z,6.89
2023-05-19T15:58:55.822Z,6.88
2023-05-19T16:01:55.871Z,7.06
2023-05-19T16:04:55.834Z,7.03
2023-05-19T16:07:55.837Z,7.05
2023-05-19T16:10:55.848Z,7
2023-05-19T16:13:55.848Z,6.99
2023-05-19T16:16:55.851Z,7.13
2023-05-19T16:19:55.907Z,7.24
2023-05-19T16:22:55.858Z,7.06
2023-05-19T16:25:55.857Z,6.99
2023-05-19T16:28:55.859Z,6.94
2023-05-19T16:31:55.890Z,7.03
2023-05-19T16:34:55.881Z,7.17
2023-05-19T16:37:55.873Z,7.05
2023-05-19T16:40:55.883Z,6.88
2023-05-19T16:43:55.890Z,6.87
2023-05-19T16:46:55.888Z,6.84
2023-05-19T16:49:55.909Z,6.88
2023-05-19T16:52:55.913Z,6.87
2023-05-19T16:55:55.914Z,6.89
2023-05-19T16:58:55.921Z,6.95
2023-05-19T17:01:55.949Z,7.08
2023-05-19T17:04:55.940Z,7.11
2023-05-19T17:07:55.939Z,7.16
2023-05-19T17:10:55.935Z,7.14
2023-05-19T17:13:55.946Z,7.07
2023-05-19T17:16:55.992Z,6.94
2023-05-19T17:19:55.938Z,6.98
2023-05-19T17:22:55.945Z,7.05
2023-05-19T17:25:55.960Z,7.05
2023-05-19T17:28:55.958Z,7.18
2023-05-19T17:31:55.976Z,7.14
2023-05-19T17:34:55.968Z,7.14
2023-05-19T17:37:55.977Z,7.11
2023-05-19T17:40:55.972Z,7.16
2023-05-19T17:43:55.983Z,7.05
2023-05-19T17:46:56.039Z,7.04
2023-05-19T17:49:56.017Z,7.06
2023-05-19T17:52:55.998Z,7.12
2023-05-19T17:55:56.005Z,7.21
2023-05-19T17:58:56.010Z,7.31
2023-05-19T18:01:56.035Z,7.24
2023-05-19T18:04:56.012Z,7.24
2023-05-19T18:07:56.020Z,7.26
2023-05-19T18:10:56.044Z,7.16
2023-05-19T18:13:56.023Z,7.22
2023-05-19T18:16:56.028Z,7.19
2023-05-19T18:19:56.029Z,7.23
2023-05-19T18:22:56.033Z,7.23
2023-05-19T18:25:56.046Z,7.22
2023-05-19T18:28:56.047Z,7.25
2023-05-19T18:31:56.059Z,7.25
2023-05-19T18:34:56.057Z,7.27
2023-05-19T18:37:56.075Z,7.24
2023-05-19T18:40:56.073Z,7.21
2023-05-19T18:43:56.070Z,7.2
2023-05-19T18:46:56.073Z,7.2
2023-05-19T18:49:56.086Z,7.18
2023-05-19T18:52:56.083Z,7.18
2023-05-19T18:55:56.090Z,7.17
2023-05-19T18:58:56.090Z,7.14
2023-05-19T19:01:56.103Z,7.14
2023-05-19T19:04:56.197Z,7.15
2023-05-19T19:07:56.101Z,7.16
2023-05-19T19:10:56.117Z,7.12
2023-05-19T19:13:56.117Z,7.12
2023-05-19T19:16:56.168Z,7.13
2023-05-19T19:19:56.153Z,7.11
2023-05-19T19:22:56.130Z,7.1
2023-05-19T19:25:56.134Z,7.14
2023-05-19T19:28:56.150Z,7.12
2023-05-19T19:31:56.150Z,7.15
2023-05-19T19:34:56.144Z,7.1
2023-05-19T19:37:56.133Z,7.13
2023-05-19T19:40:56.143Z,7.11
2023-05-19T19:43:56.163Z,7.14
2023-05-19T19:46:56.200Z,7.13
2023-05-19T19:49:56.184Z,7.14
2023-05-19T19:52:56.161Z,7.13
2023-05-19T19:55:56.172Z,7.12
2023-05-19T19:58:56.747Z,7.15
2023-05-19T20:01:56.207Z,7.15
2023-05-19T20:04:56.186Z,7.14
2023-05-19T20:07:56.210Z,7.13
2023-05-19T20:10:56.201Z,7.14
2023-05-19T20:13:56.202Z,7.14
2023-05-19T20:16:56.208Z,7.13
2023-05-19T20:19:56.204Z,7.12
2023-05-19T20:22:56.209Z,7.11
2023-05-19T20:26:10.602Z,7.14
2023-05-19T20:28:56.226Z,7.17
2023-05-19T20:31:57.293Z,7.15
2023-05-19T20:34:56.243Z,7.17
2023-05-19T20:37:56.243Z,7.17
2023-05-19T20:40:56.241Z,7.2
2023-05-19T20:43:56.249Z,7.19
2023-05-19T20:46:56.259Z,7.23
2023-05-19T20:49:56.261Z,7.22
2023-05-19T20:52:56.261Z,7.21
2023-05-19T20:55:56.273Z,7.2
2023-05-19T20:58:56.278Z,7.21
2023-05-19T21:01:56.286Z,7.19
2023-05-19T21:04:56.311Z,7.21
2023-05-19T21:07:56.304Z,7.18
2023-05-19T21:10:56.295Z,7.21
2023-05-19T21:13:56.301Z,7.2
2023-05-19T21:16:56.340Z,7.23
2023-05-19T21:19:56.318Z,7.22
2023-05-19T21:22:56.439Z,7.22
2023-05-19T21:25:56.320Z,7.23
2023-05-19T21:28:56.316Z,7.26
2023-05-19T21:31:56.320Z,7.24
2023-05-19T21:34:56.325Z,7.2
2023-05-19T21:37:56.331Z,7.23
2023-05-19T21:40:56.335Z,7.2
2023-05-19T21:43:56.339Z,7.19
2023-05-19T21:46:56.415Z,7.18
2023-05-19T21:49:56.346Z,7.2
2023-05-19T21:52:56.351Z,7.17
2023-05-19T21:55:56.358Z,7.16
2023-05-19T21:58:56.364Z,7.15
2023-05-19T22:01:56.427Z,7.17
2023-05-19T22:04:56.367Z,7.13
2023-05-19T22:07:56.389Z,7.16
2023-05-19T22:10:56.383Z,7.18
2023-05-19T22:13:56.382Z,7.16
2023-05-19T22:16:56.382Z,7.18
2023-05-19T22:19:56.395Z,7.23
2023-05-19T22:22:56.403Z,7.24
2023-05-19T22:25:56.401Z,7.23
2023-05-19T22:28:56.414Z,7.22
2023-05-19T22:31:56.406Z,7.24
2023-05-19T22:34:56.420Z,7.23
2023-05-19T22:37:56.428Z,7.26
2023-05-19T22:40:56.427Z,7.26
2023-05-19T22:43:56.441Z,7.3
2023-05-19T22:46:56.442Z,7.31
2023-05-19T22:49:57.207Z,7.3
2023-05-19T22:52:56.456Z,7.33
2023-05-19T22:55:56.460Z,7.31
2023-05-19T22:58:56.470Z,7.33
2023-05-19T23:01:56.470Z,7.3
2023-05-19T23:04:56.472Z,7.33
2023-05-19T23:07:56.483Z,7.35
2023-05-19T23:10:56.476Z,7.36
2023-05-19T23:13:56.489Z,7.38
2023-05-19T23:16:56.499Z,7.33
2023-05-19T23:19:56.497Z,7.35
2023-05-19T23:22:56.631Z,7.32
2023-05-19T23:25:56.505Z,7.29
2023-05-19T23:28:56.512Z,7.3
2023-05-19T23:31:56.516Z,7.28
2023-05-19T23:34:56.537Z,7.26
2023-05-19T23:37:56.566Z,7.29
2023-05-19T23:40:56.541Z,7.27
2023-05-19T23:43:56.540Z,7.23
2023-05-19T23:46:56.614Z,7.22
2023-05-19T23:49:56.549Z,7.2
2023-05-19T23:52:56.562Z,7.21
2023-05-19T23:55:58.555Z,7.18
2023-05-19T23:58:56.579Z,7.2
